Latest Weather Observations for Bundaberg

IDQ60801

Issued at 5:22 pm EST Friday 22 June 2018 (issued every 10 minutes, with the page automatically refreshed every 10 minutes)

About weather observations | Map of weather stations | Latest weather observations for QLD | Other Formats
Station Details ID: 039128 Name: BUNDABERG AERO Lat: -24.91 Lon: 152.32 Height: 30.82 m
Data from the previous 72 hours. | See also: Recent months at Bundaberg
Date/Time
EST
Temp
°C
App
Temp
°C
Dew
Point
°C
Rel
Hum
%
Delta-T
°C
Wind Press
QNH
hPa
Press
MSL
hPa
Rain since
9am
mm
Dir  Spd
km/h
Gust
km/h
Spd
kts
Gust
kts
22/05:00pm 19.6 16.8 12.6 64 3.9 ESE 19 24 10 13 1023.8 1023.8 0.0
22/04:30pm 20.5 16.9 12.0 58 4.7 ESE 22 28 12 15 1023.5 1023.5 0.0
22/04:00pm 20.9 17.8 12.1 57 4.9 ESE 20 30 11 16 1023.4 1023.4 0.0
22/03:30pm 20.9 17.5 12.6 59 4.7 ESE 22 30 12 16 1023.3 1023.3 0.0
22/03:00pm 21.0 17.9 12.2 57 4.9 ESE 20 26 11 14 1023.3 1023.3 0.0
22/02:30pm 21.3 17.5 12.4 57 5.0 ESE 24 32 13 17 1023.4 1023.4 0.0
22/02:00pm 21.4 17.6 12.3 56 5.1 ESE 24 32 13 17 1023.4 1023.4 0.0
22/01:30pm 21.9 18.0 12.2 54 5.5 SE 24 32 13 17 1023.6 1023.6 0.0
22/01:00pm 21.1 17.9 12.0 56 5.1 SE 20 26 11 14 1023.9 1023.9 0.0
22/12:30pm 21.0 18.1 12.2 57 4.9 SE 19 26 10 14 1024.2 1024.2 0.0
22/12:00pm 20.0 16.3 12.7 63 4.1 SE 24 37 13 20 1024.9 1024.9 0.0
22/11:30am 20.8 16.5 12.2 58 4.8 SE 26 35 14 19 1025.0 1025.0 0.0
22/11:00am 21.7 18.4 12.8 57 5.0 SE 22 32 12 17 1025.3 1025.3 0.0
22/10:30am 19.9 16.3 11.9 60 4.4 SSE 22 32 12 17 1025.5 1025.5 0.0
22/10:00am 18.8 15.2 11.9 64 3.8 SSE 22 30 12 16 1025.7 1025.7 0.0
22/09:30am 18.0 14.2 11.3 65 3.6 SSE 22 35 12 19 1025.8 1025.8 0.0
22/09:00am 17.3 12.8 11.3 68 3.2 SSE 26 35 14 19 1025.6 1025.6 0.0
22/08:30am 16.0 13.3 11.6 75 2.4 SSE 17 26 9 14 1025.4 1025.4 0.0
22/08:00am 14.7 12.6 11.3 80 1.8 SSE 13 24 7 13 1025.2 1025.2 0.0
22/07:30am 13.4 11.3 11.1 86 1.2 S 13 19 7 10 1024.9 1024.9 0.0
22/07:00am 12.1 10.5 10.3 89 0.9 S 9 13 5 7 1024.6 1024.6 0.0
22/06:30am 12.2 10.3 10.6 90 0.8 SSE 11 17 6 9 1024.3 1024.3 0.0
22/06:00am 11.9 9.6 10.3 90 0.8 S 13 19 7 10 1023.8 1023.8 0.0
22/05:30am 12.1 9.9 10.7 91 0.7 S 13 19 7 10 1023.8 1023.8 0.0
22/05:00am 11.7 10.1 10.3 91 0.7 SSE 9 13 5 7 1023.6 1023.6 0.0
22/04:30am 12.0 10.1 10.6 91 0.7 S 11 17 6 9 1023.5 1023.5 0.0
22/04:00am 11.8 10.3 10.5 92 0.7 S 9 13 5 7 1023.5 1023.5 0.0
22/03:30am 11.8 10.3 10.4 91 0.7 S 9 13 5 7 1023.5 1023.5 0.0
22/03:00am 12.4 10.6 11.0 91 0.7 S 11 13 6 7 1023.6 1023.6 0.0
22/02:30am 12.5 11.2 11.1 91 0.7 S 9 13 5 7 1023.8 1023.8 0.0
22/02:00am 12.7 11.0 11.3 91 0.7 S 11 15 6 8 1023.9 1023.9 0.0
22/01:30am 12.6 11.3 11.2 91 0.7 S 9 13 5 7 1024.2 1024.2 0.0
22/01:00am 12.8 11.1 11.2 90 0.8 S 11 15 6 8 1024.3 1024.3 0.0
22/12:30am 13.3 12.1 11.7 90 0.9 S 9 15 5 8 1024.3 1024.3 0.0
22/12:00am 13.5 12.3 11.7 89 1.0 S 9 11 5 6 1024.5 1024.5 0.0
 
Date/Time
EST
Temp
°C
App
Temp
°C
Dew
Point
°C
Rel
Hum
%
Delta-T
°C
Wind Press
QNH
hPa
Press
MSL
hPa
Rain since
9am
mm
Dir  Spd
km/h
Gust
km/h
Spd
kts
Gust
kts
21/11:30pm 13.5 12.3 11.7 89 1.0 SSE 9 15 5 8 1024.6 1024.6 0.0
21/11:00pm 13.5 12.4 11.9 90 0.9 SSE 9 13 5 7 1024.7 1024.7 0.0
21/10:30pm 12.2 10.6 10.3 88 1.0 SSE 9 13 5 7 1024.8 1024.8 0.0
21/10:00pm 12.9 12.0 10.6 86 1.2 SSE 6 9 3 5 1024.8 1024.8 0.0
21/09:30pm 13.7 12.3 11.0 84 1.4 S 9 15 5 8 1024.7 1024.7 0.0
21/09:00pm 14.0 12.3 11.2 83 1.5 S 11 15 6 8 1024.7 1024.7 0.0
21/08:30pm 14.2 12.8 10.8 80 1.8 SSE 9 13 5 7 1024.7 1024.7 0.0
21/08:00pm 14.0 12.1 10.4 79 1.9 SSE 11 13 6 7 1024.5 1024.5 0.0
21/07:30pm 15.4 13.9 12.0 80 1.8 SSE 11 15 6 8 1024.3 1024.3 0.0
21/07:00pm 14.8 13.9 11.4 80 1.8 SSE 7 11 4 6 1024.0 1024.0 0.0
21/06:30pm 15.1 13.9 11.5 79 1.9 SSE 9 11 5 6 1023.7 1023.7 0.0
21/06:00pm 16.0 14.1 11.8 76 2.3 SE 13 17 7 9 1023.2 1023.2 0.0
21/05:30pm 17.7 15.0 12.8 73 2.7 ESE 19 26 10 14 1022.9 1022.9 0.0
21/05:00pm 18.7 15.9 12.7 68 3.4 ESE 19 24 10 13 1022.7 1022.7 0.0
21/04:30pm 19.9 17.0 12.9 64 4.0 ESE 20 32 11 17 1022.2 1022.2 0.0
21/04:00pm 21.0 17.1 12.2 57 4.9 ESE 24 30 13 16 1021.8 1021.8 0.0
21/03:30pm 21.2 17.4 11.2 53 5.5 ESE 22 33 12 18 1021.8 1021.8 0.0
21/03:00pm 22.0 18.7 11.7 52 5.7 ESE 20 30 11 16 1021.5 1021.5 0.0
21/02:30pm 21.2 17.0 11.2 53 5.5 ESE 24 30 13 16 1021.5 1021.5 0.0
21/02:00pm 22.1 18.8 11.5 51 5.9 ESE 20 30 11 16 1021.7 1021.7 0.0
21/01:30pm 21.5 17.7 9.7 47 6.4 SE 20 30 11 16 1021.9 1021.9 0.0
21/01:00pm 23.1 20.0 11.5 48 6.5 SE 19 32 10 17 1022.1 1022.1 0.0
21/12:30pm 21.3 17.7 10.5 50 5.9 SE 20 32 11 17 1022.7 1022.7 0.0
21/12:00pm 22.0 17.8 11.1 50 6.0 SE 24 35 13 19 1023.1 1023.1 0.0
21/11:30am 21.8 17.2 10.9 50 6.0 SE 26 33 14 18 1023.4 1023.4 0.0
21/11:00am 21.7 18.2 10.8 50 6.0 SSE 20 32 11 17 1023.8 1023.8 0.0
21/10:30am 20.3 16.6 10.1 52 5.5 SSE 20 28 11 15 1024.0 1024.0 0.0
21/10:00am 19.3 15.4 9.5 53 5.2 SSE 20 28 11 15 1024.1 1024.1 0.0
21/09:30am 18.3 14.4 8.6 53 5.0 SSE 19 30 10 16 1024.4 1024.4 0.0
21/09:00am 17.0 12.8 7.4 53 4.8 S 19 26 10 14 1024.3 1024.3 0.0
21/08:30am 15.9 11.5 6.6 54 4.6 S 19 26 10 14 1024.2 1024.2 0.0
21/08:00am 14.5 11.4 7.1 61 3.6 S 13 20 7 11 1023.9 1023.9 0.0
21/07:30am 13.0 10.2 6.8 66 3.0 SSW 11 19 6 10 1023.8 1023.8 0.0
21/07:00am 11.5 8.6 6.6 72 2.3 SSW 11 13 6 7 1023.4 1023.4 0.0
21/06:30am 10.8 8.7 6.7 76 1.9 SSW 7 13 4 7 1023.2 1023.2 0.0
21/06:00am 11.2 8.7 6.7 74 2.1 SSW 9 13 5 7 1023.0 1023.0 0.0
21/05:30am 10.9 8.5 6.8 76 1.9 SW 9 13 5 7 1022.7 1022.7 0.0
21/05:00am 10.6 8.4 6.4 75 2.0 SW 7 11 4 6 1022.1 1022.1 0.0
21/04:30am 11.5 9.5 7.2 75 2.1 SW 7 11 4 6 1022.1 1022.1 0.0
21/04:00am 11.5 8.8 7.2 75 2.1 SSW 11 15 6 8 1021.7 1021.7 0.0
21/03:30am 11.4 8.3 7.3 76 2.0 S 13 19 7 10 1021.7 1021.7 0.0
21/03:00am 11.7 8.7 7.8 77 1.9 S 13 19 7 10 1021.8 1021.8 0.0
21/02:30am 11.5 8.5 7.6 77 1.9 S 13 15 7 8 1021.9 1021.9 0.0
21/02:00am 11.7 8.7 7.8 77 1.9 S 13 17 7 9 1022.0 1022.0 0.0
21/01:30am 12.4 9.5 8.3 76 2.0 S 13 17 7 9 1022.1 1022.1 0.0
21/01:00am 12.8 10.0 8.7 76 2.0 SSW 13 17 7 9 1022.4 1022.4 0.0
21/12:30am 11.7 9.2 8.2 79 1.7 SSW 11 13 6 7 1022.6 1022.6 0.0
21/12:00am 12.2 10.2 8.5 78 1.8 SSW 9 11 5 6 1022.6 1022.6 0.0
 
Date/Time
EST
Temp
°C
App
Temp
°C
Dew
Point
°C
Rel
Hum
%
Delta-T
°C
Wind Press
QNH
hPa
Press
MSL
hPa
Rain since
9am
mm
Dir  Spd
km/h
Gust
km/h
Spd
kts
Gust
kts
20/11:30pm 12.1 10.0 8.2 77 1.9 SSW 9 11 5 6 1022.8 1022.8 0.0
20/11:00pm 12.4 10.4 8.7 78 1.8 SSW 9 11 5 6 1022.9 1022.9 0.0
20/10:30pm 11.4 9.8 8.8 84 1.3 SSW 7 9 4 5 1022.9 1022.9 0.0
20/10:00pm 9.6 7.7 6.7 82 1.3 SW 6 7 3 4 1023.0 1023.0 0.0
20/09:30pm 10.6 9.7 7.8 83 1.4 SSW 2 7 1 4 1022.9 1022.9 0.0
20/09:00pm 11.6 9.8 8.1 79 1.7 SSW 7 9 4 5 1022.9 1022.9 0.0
20/08:30pm 12.8 11.0 9.6 81 1.6 SSW 9 9 5 5 1022.9 1022.9 0.0
20/08:00pm 12.4 10.8 8.7 78 1.8 SSW 7 7 4 4 1022.9 1022.9 0.0
20/07:30pm 12.8 11.4 8.7 76 2.1 SSE 6 7 3 4 1022.7 1022.7 0.0
20/07:00pm 14.3 13.0 9.3 72 2.5 SSE 6 7 3 4 1022.5 1022.5 0.0
20/06:30pm 15.7 14.4 9.8 68 3.1 SE 7 9 4 5 1022.1 1022.1 0.0
20/06:00pm 16.0 14.4 10.1 68 3.1 SE 9 11 5 6 1021.8 1021.8 0.0
20/05:30pm 16.2 14.3 9.2 63 3.6 SE 9 15 5 8 1021.6 1021.6 0.0
20/05:00pm 17.9 15.2 9.0 56 4.6 SE 13 17 7 9 1021.3 1021.3 0.0
20/04:30pm 19.6 15.6 8.9 50 5.6 ESE 20 26 11 14 1021.1 1021.1 0.0
20/04:00pm 20.4 17.0 9.0 48 6.0 ESE 17 20 9 11 1020.9 1020.9 0.0
20/03:30pm 21.5 17.7 7.7 41 7.2 SE 17 26 9 14 1020.6 1020.6 0.0
20/03:00pm 21.5 17.7 5.8 36 7.8 SSE 15 24 8 13 1020.5 1020.5 0.0
20/02:30pm 21.2 16.4 4.7 34 8.1 SSE 19 26 10 14 1020.4 1020.4 0.0
20/02:00pm 21.1 17.7 4.2 33 8.2 SSE 11 17 6 9 1020.4 1020.4 0.0
20/01:30pm 21.0 16.9 4.1 33 8.2 S 15 20 8 11 1020.4 1020.4 0.0
20/01:00pm 21.4 17.2 4.0 32 8.4 SSE 15 28 8 15 1020.5 1020.5 0.0
20/12:30pm 20.3 16.4 3.5 33 8.0 S 13 20 7 11 1020.6 1020.6 0.0
20/12:00pm 19.9 15.7 3.6 34 7.7 S 15 24 8 13 1020.9 1020.9 0.0
20/11:30am 19.6 14.9 3.3 34 7.7 SSE 17 28 9 15 1021.4 1021.4 0.0
20/11:00am 18.6 14.3 3.3 36 7.1 S 15 24 8 13 1022.3 1022.3 0.0
20/10:30am 17.9 13.3 3.8 39 6.6 S 17 24 9 13 1022.6 1022.6 0.0
20/10:00am 17.3 12.7 3.9 41 6.2 SSW 17 24 9 13 1022.6 1022.6 0.0
20/09:30am 16.1 11.8 3.5 43 5.8 SSW 15 20 8 11 1022.7 1022.7 0.0
20/09:00am 14.5 9.8 3.3 47 5.0 SSW 17 20 9 11 1022.5 1022.5 -
20/08:30am 12.9 8.6 3.3 52 4.3 SW 15 22 8 12 1022.6 1022.6 -
20/08:00am 11.1 7.1 2.9 57 3.5 SW 13 19 7 10 1022.7 1022.7 -
20/07:30am 9.8 6.1 2.4 60 3.1 SW 11 17 6 9 1022.5 1022.5 -
20/07:00am 9.0 4.1 2.1 62 2.9 SW 17 24 9 13 1022.2 1022.2 -
20/06:30am 8.8 3.9 1.9 62 2.9 SW 17 24 9 13 1021.7 1021.7 -
20/06:00am 8.8 4.6 1.9 62 2.9 SW 13 17 7 9 1021.5 1021.5 -
20/05:30am 8.9 4.3 1.6 60 3.0 SW 15 20 8 11 1020.8 1020.8 -
20/05:00am 9.3 4.7 1.5 58 3.2 SW 15 20 8 11 1020.8 1020.8 -
20/04:30am 9.5 4.5 1.4 57 3.3 SW 17 20 9 11 1020.8 1020.8 -
20/04:00am 9.3 4.6 1.2 57 3.3 SW 15 20 8 11 1020.9 1020.9 -
20/03:30am 9.4 4.7 0.8 55 3.5 SW 15 20 8 11 1020.8 1020.8 -
20/03:00am 10.5 5.8 1.1 52 3.9 SW 15 22 8 12 1020.9 1020.9 0.0
20/02:30am 9.9 5.6 1.0 54 3.7 WSW 13 20 7 11 1021.0 1021.0 -
20/02:00am 9.6 5.3 1.0 55 3.5 WSW 13 19 7 10 1021.0 1021.0 -
20/01:30am 7.9 3.6 1.3 63 2.7 WSW 13 17 7 9 1020.8 1020.8 -
20/01:00am 9.7 5.7 0.6 53 3.7 WSW 11 15 6 8 1020.9 1020.9 -
20/12:30am 9.9 5.9 0.5 52 3.8 WSW 11 13 6 7 1021.2 1021.2 -
20/12:00am 10.0 5.7 1.1 54 3.7 WSW 13 17 7 9 1021.4 1021.4 -
 
Date/Time
EST
Temp
°C
App
Temp
°C
Dew
Point
°C
Rel
Hum
%
Delta-T
°C
Wind Press
QNH
hPa
Press
MSL
hPa
Rain since
9am
mm
Dir  Spd
km/h
Gust
km/h
Spd
kts
Gust
kts
19/11:30pm 8.1 3.8 1.3 62 2.8 W 13 17 7 9 1021.5 1021.5 -
19/11:00pm 8.0 3.7 1.0 61 2.8 W 13 15 7 8 1021.5 1021.5 -
19/10:30pm 8.4 4.0 0.4 57 3.2 W 13 15 7 8 1021.4 1021.4 -
19/10:00pm 10.3 5.8 -0.2 48 4.2 W 13 15 7 8 1021.3 1021.3 -
19/09:30pm 11.1 7.0 -0.1 46 4.5 WSW 11 15 6 8 1021.2 1021.2 -
19/09:00pm 11.5 7.8 -0.3 44 4.8 WSW 9 13 5 7 1020.9 1020.9 -
19/08:30pm 10.9 6.4 -0.2 46 4.5 WSW 13 17 7 9 1020.9 1020.9 -
19/08:00pm 11.6 7.8 -0.5 43 4.9 W 9 13 5 7 1020.7 1020.7 -
19/07:30pm 13.9 10.5 -0.9 36 6.1 WSW 7 11 4 6 1020.5 1020.5 -
19/07:00pm 14.3 10.0 -1.3 34 6.3 SW 11 15 6 8 1019.9 1019.9 -
19/06:30pm 14.4 10.5 -1.2 34 6.4 SW 9 13 5 7 1019.6 1019.5 -
19/06:00pm 15.2 10.9 -1.8 31 6.9 SW 11 17 6 9 1019.4 1019.3 -
19/05:30pm 16.6 11.5 -2.0 28 7.6 SW 15 22 8 12 1018.8 1018.7 -

Other Formats:

Comma delimited format used in spreadsheet applications
http://www.bom.gov.au/fwo/IDQ60801/IDQ60801.94387.axf

JavaScript Object Notation format (JSON) in row-major order
http://www.bom.gov.au/fwo/IDQ60801/IDQ60801.94387.json